Time;durP1;ratioP1;P1;durP2;ratioP2;P2;SDS_P1;SDS_P2;PMS_P1;PMS_P2;Temp;Humidity;BMP_temperature;BMP_pressure;BME280_temperature;BME280_humidity;BME280_pressure;Samples;Min_cycle;Max_cycle;Signal;HPM_P1;HPM_P2
2021/05/20 05:02:16;;;;;;;8.83;8.00;;;;;;;15.62;86.47;99869.16;1831948;76;25281;-58
2021/05/20 05:04:50;;;;;;;7.05;6.05;;;;;;;15.63;86.61;99866.33;1809437;78;21837;-63
2021/05/20 05:07:24;;;;;;;5.70;5.20;;;;;;;15.73;86.69;99872.19;1807560;78;22263;-59
2021/05/20 05:09:59;;;;;;;5.97;5.10;;;;;;;15.77;86.53;99878.75;1806139;77;21295;-58
2021/05/20 05:12:32;;;;;;;5.62;4.97;;;;;;;15.80;86.91;99885.00;1808860;78;21807;-63
2021/05/20 05:15:07;;;;;;;5.47;4.97;;;;;;;15.86;87.38;99880.80;1802138;78;21314;-62
2021/05/20 05:17:40;;;;;;;;;;;;;;;15.89;87.60;99882.59;1809168;78;21270;-62
2021/05/20 05:20:12;;;;;;;6.53;5.40;;;;;;;15.93;87.48;99885.72;1801596;78;20289;-65
2021/05/20 05:22:45;;;;;;;6.03;5.03;;;;;;;16.00;87.59;99882.16;1802860;78;21309;-67
2021/05/20 05:25:18;;;;;;;6.20;4.83;;;;;;;16.11;87.26;99884.87;1803642;78;21121;-59
2021/05/20 05:27:52;;;;;;;5.67;4.53;;;;;;;16.20;86.96;99886.42;1802207;78;21732;-60
2021/05/20 05:30:27;;;;;;;5.97;4.25;;;;;;;16.30;86.50;99881.70;1807862;78;21320;-67
2021/05/20 05:33:00;;;;;;;4.20;3.80;;;;;;;16.36;85.76;99895.48;1804363;78;22430;-66
2021/05/20 05:35:34;;;;;;;5.42;4.08;;;;;;;16.37;85.19;99887.06;1807655;79;21283;-62
2021/05/20 05:38:07;;;;;;;4.42;3.60;;;;;;;16.33;84.84;99893.72;1801730;78;21459;-62
2021/05/20 05:40:40;;;;;;;4.67;3.08;;;;;;;16.30;84.69;99902.00;1803093;78;21251;-57
2021/05/20 05:43:15;;;;;;;4.58;3.25;;;;;;;16.30;84.54;99902.00;1803780;78;21833;-64
2021/05/20 05:45:49;;;;;;;3.95;3.30;;;;;;;16.25;84.45;99899.08;1800458;79;21251;-59
2021/05/20 05:48:22;;;;;;;4.08;3.67;;;;;;;16.24;84.46;99904.06;1740376;80;21298;-57
2021/05/20 05:50:57;;;;;;;;;;;;;;;16.21;84.58;99903.09;1718861;82;21323;-58
2021/05/20 05:53:31;;;;;;;5.15;4.25;;;;;;;16.16;84.50;99903.14;1745978;81;21054;-59
2021/05/20 05:56:05;;;;;;;4.95;4.42;;;;;;;16.13;84.61;99906.14;1717676;83;21351;-61
2021/05/20 05:58:38;;;;;;;3.83;3.45;;;;;;;16.13;84.65;99903.50;1698694;82;21292;-63
2021/05/20 06:01:11;;;;;;;;;;;;;;;16.10;83.60;99909.63;1722975;83;21188;-60
2021/05/20 06:03:43;;;;;;;4.62;3.90;;;;;;;16.03;82.93;99913.48;1689481;83;21031;-61
2021/05/20 06:06:16;;;;;;;4.47;4.05;;;;;;;15.98;82.81;99907.09;1690834;83;21204;-62
2021/05/20 06:08:49;;;;;;;4.28;3.60;;;;;;;16.01;82.86;99921.27;1689742;83;21972;-59
2021/05/20 06:11:22;;;;;;;10.20;3.92;;;;;;;16.08;82.85;99916.91;1694625;83;21238;-61
2021/05/20 06:13:56;;;;;;;3.70;3.23;;;;;;;16.09;82.32;99915.43;1692100;83;21337;-58
2021/05/20 06:16:28;;;;;;;;;;;;;;;16.06;81.48;99925.52;1689491;83;21310;-58
2021/05/20 06:19:03;;;;;;;4.10;3.12;;;;;;;15.96;81.23;99929.73;1690177;83;20314;-58
2021/05/20 06:21:37;;;;;;;3.62;3.20;;;;;;;15.84;81.10;99929.00;1692862;83;21367;-58
2021/05/20 06:24:11;;;;;;;7.45;3.60;;;;;;;15.79;81.05;99928.70;1690489;83;21293;-62
2021/05/20 06:26:44;;;;;;;4.25;3.58;;;;;;;15.79;81.03;99926.89;1690578;84;21331;-59
2021/05/20 06:29:17;;;;;;;8.57;3.97;;;;;;;15.80;80.76;99926.40;1687322;83;21271;-57
2021/05/20 06:31:52;;;;;;;5.75;4.55;;;;;;;15.84;80.32;99925.03;1691197;84;21192;-58
2021/05/20 06:34:25;;;;;;;3.85;3.42;;;;;;;15.86;79.44;99933.59;1689676;83;21153;-58
2021/05/20 06:37:05;;;;;;;7.30;5.42;;;;;;;15.88;79.47;99931.10;1690079;83;21273;-59
2021/05/20 06:39:39;;;;;;;18.50;10.50;;;;;;;15.93;78.07;99926.11;1688536;83;21764;-61
2021/05/20 06:42:15;;;;;;;8.38;6.80;;;;;;;16.01;77.16;99931.83;1681145;83;21910;-59
2021/05/20 06:44:49;;;;;;;6.83;5.50;;;;;;;16.15;76.81;99937.14;1684770;84;21236;-61
2021/05/20 06:47:22;;;;;;;6.85;4.95;;;;;;;16.38;75.29;99940.23;1706162;83;21380;-60
2021/05/20 06:49:57;;;;;;;5.33;4.03;;;;;;;16.62;74.42;99938.69;1695668;84;21315;-59
2021/05/20 06:52:30;;;;;;;4.75;4.25;;;;;;;16.94;72.75;99946.22;1696047;83;21335;-62
2021/05/20 06:55:03;;;;;;;5.70;3.85;;;;;;;17.35;71.25;99953.13;1667716;85;21471;-59
2021/05/20 07:00:36;;;;;;;3.30;3.00;;;;;;;18.67;66.57;99962.09;1687928;85;20248;-64
2021/05/20 07:03:15;;;;;;;4.97;2.90;;;;;;;19.56;64.70;99961.55;1690166;83;21218;-64
2021/05/20 07:05:49;;;;;;;4.85;2.80;;;;;;;19.87;62.13;99964.45;1697771;83;21424;-61
2021/05/20 07:08:22;;;;;;;2.67;2.40;;;;;;;19.83;60.36;99969.87;1688612;83;21755;-65
2021/05/20 07:10:58;;;;;;;4.87;2.98;;;;;;;19.66;58.76;99981.07;1685554;83;21300;-65
2021/05/20 07:13:31;;;;;;;3.98;1.87;;;;;;;19.43;58.68;99980.11;1700037;82;21238;-63
2021/05/20 07:16:04;;;;;;;3.77;1.87;;;;;;;19.55;58.51;99988.31;1676704;85;21832;-61
2021/05/20 07:18:37;;;;;;;3.98;2.37;;;;;;;19.59;57.93;99985.55;1673324;85;21319;-64
2021/05/20 07:21:10;;;;;;;2.63;2.10;;;;;;;19.49;57.95;99996.55;1677347;84;21340;-60
2021/05/20 07:23:44;;;;;;;5.25;2.30;;;;;;;19.20;57.64;99991.00;1678847;84;21635;-60
2021/05/20 07:26:17;;;;;;;11.65;2.85;;;;;;;18.82;58.44;100011.00;1674808;85;21898;-63
2021/05/20 07:28:49;;;;;;;7.87;2.50;;;;;;;18.49;59.50;100000.69;1680392;84;21233;-60
2021/05/20 07:31:23;;;;;;;6.08;2.62;;;;;;;18.19;60.90;100011.95;1663710;85;21181;-61
2021/05/20 07:33:56;;;;;;;4.95;2.30;;;;;;;17.95;61.76;100008.36;1686227;85;22594;-65
2021/05/20 07:36:30;;;;;;;2.17;1.60;;;;;;;17.82;62.94;100018.31;1683539;84;21350;-69
2021/05/20 07:39:05;;;;;;;3.67;1.60;;;;;;;17.98;62.56;100024.68;1683501;84;21304;-66
2021/05/20 07:41:39;;;;;;;1.20;1.10;;;;;;;18.11;61.63;99990.38;1683535;85;21739;-65
2021/05/20 07:44:13;;;;;;;1.95;1.20;;;;;;;18.24;61.53;100023.30;1687819;83;21338;-66
2021/05/20 07:46:48;;;;;;;3.67;1.20;;;;;;;18.43;61.18;100007.56;1685390;84;21328;-62
2021/05/20 07:49:21;;;;;;;14.53;9.88;;;;;;;18.75;60.69;100026.88;1687310;83;21350;-63
2021/05/20 07:51:55;;;;;;;2.17;1.60;;;;;;;18.97;59.81;100030.78;1687951;84;21233;-62
2021/05/20 07:54:29;;;;;;;2.05;1.00;;;;;;;19.22;58.50;100023.50;1698978;82;21291;-64
2021/05/20 07:57:03;;;;;;;6.17;1.40;;;;;;;19.49;58.11;100037.20;1681032;84;21264;-64
2021/05/20 07:59:36;;;;;;;2.75;1.37;;;;;;;19.83;56.94;100036.80;1669896;85;21312;-66
2021/05/20 08:02:33;;;;;;;2.05;1.17;;;;;;;20.01;55.85;100039.17;1688745;83;21981;-63
2021/05/20 08:04:50;;;;;;;2.08;1.22;;;;;;;20.12;55.31;100035.12;1687708;83;21201;-58
2021/05/20 08:12:49;;;;;;;2.37;2.00;;;;;;;20.20;55.08;100042.08;1696498;83;20279;-61
2021/05/20 08:15:24;;;;;;;7.08;1.87;;;;;;;20.10;55.33;100038.49;1698075;83;21216;-61
2021/05/20 08:17:57;;;;;;;4.08;2.00;;;;;;;20.06;55.75;100050.02;1683578;83;21177;-64
2021/05/20 08:20:31;;;;;;;2.55;2.12;;;;;;;19.93;54.95;100047.36;1697706;83;22009;-62
2021/05/20 08:23:04;;;;;;;3.03;2.07;;;;;;;19.67;55.73;100053.09;1706684;82;21322;-66
2021/05/20 08:25:37;;;;;;;6.30;2.22;;;;;;;19.49;56.57;100059.77;1693491;83;21320;-61
2021/05/20 08:28:11;;;;;;;3.85;2.02;;;;;;;19.34;56.66;100061.73;1687887;83;22036;-61
2021/05/20 08:30:44;;;;;;;3.85;2.22;;;;;;;19.23;56.89;100057.47;1688241;83;21244;-64
2021/05/20 08:33:17;;;;;;;2.92;2.40;;;;;;;19.05;56.77;100054.52;1687879;83;21177;-63
2021/05/20 08:35:51;;;;;;;;;;;;;;;18.86;57.37;100060.02;1687556;83;21165;-65
2021/05/20 08:38:24;;;;;;;1.75;1.55;;;;;;;18.84;57.89;100067.36;1683846;83;20571;-65
2021/05/20 08:41:01;;;;;;;6.17;1.90;;;;;;;18.97;58.21;100063.95;1691741;83;21437;-64
2021/05/20 08:43:34;;;;;;;3.45;1.62;;;;;;;19.44;58.06;100070.66;1683918;83;21900;-65
2021/05/20 08:46:08;;;;;;;8.35;1.67;;;;;;;20.06;55.51;100072.61;1689140;83;21778;-61
2021/05/20 08:48:41;;;;;;;2.47;1.27;;;;;;;20.58;55.29;100071.90;1689018;83;21201;-61
2021/05/20 08:51:14;;;;;;;1.50;1.20;;;;;;;21.08;53.93;100058.96;1693970;83;21232;-63
2021/05/20 08:53:47;;;;;;;4.17;1.42;;;;;;;21.26;52.17;100065.77;1693641;83;21303;-63
2021/05/20 08:56:23;;;;;;;2.75;1.40;;;;;;;21.22;52.26;100070.70;1682252;83;21344;-63
2021/05/20 08:58:59;;;;;;;3.70;1.40;;;;;;;21.24;51.82;100061.16;1687919;82;21291;-64
2021/05/20 09:01:54;;;;;;;1.22;1.05;;;;;;;21.28;49.86;100063.20;1695343;83;21209;-62
2021/05/20 09:04:26;;;;;;;;;;;;;;;21.15;49.01;100066.42;1703967;83;21346;-63
2021/05/20 09:07:10;;;;;;;2.27;0.70;;;;;;;21.35;48.50;100075.18;1691039;83;20348;-61
2021/05/20 09:09:43;;;;;;;2.45;0.70;;;;;;;21.46;47.38;100079.34;1692728;83;21268;-62
2021/05/20 09:12:20;;;;;;;1.12;0.50;;;;;;;21.55;47.97;100081.74;1742641;81;21315;-63
2021/05/20 09:14:51;;;;;;;1.20;0.70;;;;;;;21.45;47.59;100092.84;1701683;82;21815;-62
2021/05/20 09:17:24;;;;;;;1.27;0.55;;;;;;;21.18;47.13;100089.97;1732850;81;21276;-62
2021/05/20 09:20:02;;;;;;;3.77;0.70;;;;;;;20.89;47.70;100087.73;1697364;84;21770;-62
2021/05/20 09:22:35;;;;;;;0.50;0.50;;;;;;;20.72;48.07;100094.81;1733066;81;21501;-64
2021/05/20 09:25:10;;;;;;;0.50;0.50;;;;;;;20.75;48.99;100097.57;1739320;81;21436;-61
2021/05/20 09:27:45;;;;;;;0.68;0.50;;;;;;;20.90;48.28;100092.03;1721785;81;21297;-60
2021/05/20 09:30:22;;;;;;;1.25;0.80;;;;;;;20.97;48.46;100095.51;1700341;83;21291;-62
2021/05/20 09:33:04;;;;;;;2.20;0.82;;;;;;;21.10;48.45;100102.16;1738566;81;21354;-59
2021/05/20 09:35:39;;;;;;;2.55;0.85;;;;;;;21.27;48.79;100102.02;1743018;81;21368;-58
2021/05/20 09:38:21;;;;;;;1.65;0.70;;;;;;;21.42;48.00;100096.74;1743699;81;21226;-60
2021/05/20 09:41:03;;;;;;;1.72;0.72;;;;;;;21.52;47.00;100098.17;1745353;81;21298;-59
2021/05/20 09:43:42;;;;;;;1.40;0.95;;;;;;;21.39;47.94;100097.19;1734886;81;21816;-61
2021/05/20 09:46:18;;;;;;;2.15;1.00;;;;;;;21.36;48.31;100100.77;1742901;81;21177;-60
2021/05/20 09:48:51;;;;;;;3.05;1.00;;;;;;;21.32;48.62;100102.22;1744297;81;21365;-63
2021/05/20 09:51:29;;;;;;;1.32;0.70;;;;;;;21.45;49.18;100099.50;1726790;81;21637;-68
2021/05/20 09:54:02;;;;;;;1.25;0.80;;;;;;;21.74;49.28;100105.64;1719130;81;21184;-64
2021/05/20 09:56:40;;;;;;;6.72;1.30;;;;;;;22.01;48.69;100097.86;1712511;81;21130;-60
2021/05/20 09:59:16;;;;;;;5.42;0.80;;;;;;;22.12;48.12;100106.51;1728653;81;21340;-61
2021/05/20 10:01:48;;;;;;;5.65;0.90;;;;;;;22.10;47.65;100097.09;1712309;81;21822;-65
2021/05/20 10:04:33;;;;;;;3.00;0.98;;;;;;;22.10;47.83;100104.58;1711714;82;21196;-61
2021/05/20 10:07:08;;;;;;;3.20;1.00;;;;;;;22.14;47.90;100098.28;1724416;82;21331;-62
2021/05/20 10:09:41;;;;;;;1.62;0.82;;;;;;;22.09;46.93;100096.27;1740112;82;22415;-64
2021/05/20 10:12:15;;;;;;;0.70;0.57;;;;;;;21.88;47.52;100095.77;1738333;82;21306;-67
2021/05/20 10:14:50;;;;;;;3.12;0.90;;;;;;;21.70;47.61;100092.45;1739167;82;21734;-65
2021/05/20 10:17:23;;;;;;;6.10;1.20;;;;;;;21.64;48.03;100095.16;1738079;82;21430;-62
2021/05/20 10:19:56;;;;;;;3.27;1.30;;;;;;;21.77;48.90;100095.08;1737726;82;22566;-60
2021/05/20 10:22:29;;;;;;;2.85;0.95;;;;;;;21.93;48.20;100094.62;1736063;82;21405;-61
2021/05/20 10:25:04;;;;;;;2.42;0.90;;;;;;;21.95;48.58;100091.22;1738936;82;21300;-64
2021/05/20 10:27:39;;;;;;;0.90;0.75;;;;;;;21.96;48.57;100086.20;1732939;82;21285;-69
2021/05/20 10:30:13;;;;;;;;;;;;;;;21.96;48.51;100089.69;1735325;82;21227;-64
2021/05/20 10:32:46;;;;;;;1.90;0.90;;;;;;;21.97;48.87;100095.84;1738496;82;20252;-68
2021/05/20 10:35:19;;;;;;;4.75;0.78;;;;;;;21.91;47.25;100088.69;1734058;82;21346;-69
2021/05/20 10:37:59;;;;;;;2.47;0.70;;;;;;;21.78;46.62;100092.19;1735059;82;21340;-63
2021/05/20 10:40:34;;;;;;;1.37;0.78;;;;;;;21.64;47.05;100084.50;1727279;82;21310;-62
2021/05/20 10:43:16;;;;;;;1.50;1.00;;;;;;;21.53;47.16;100100.61;1729383;82;21806;-65
2021/05/20 10:46:04;;;;;;;1.40;0.85;;;;;;;21.54;47.66;100090.27;1732749;82;21366;-70
2021/05/20 10:48:38;;;;;;;3.60;0.62;;;;;;;21.62;47.04;100077.20;1735898;82;21259;-66
2021/05/20 10:51:17;;;;;;;4.97;0.70;;;;;;;21.68;46.03;100087.03;1730950;82;21200;-66
2021/05/20 10:54:09;;;;;;;4.95;0.80;;;;;;;21.74;45.95;100088.84;1737559;82;21299;-62
2021/05/20 10:56:49;;;;;;;1.40;0.65;;;;;;;21.69;46.36;100104.63;1734861;82;22262;-65
2021/05/20 10:59:40;;;;;;;2.40;0.70;;;;;;;21.72;47.10;100086.39;1732402;82;21157;-65
2021/05/20 11:02:20;;;;;;;2.60;0.65;;;;;;;21.72;45.98;100094.39;1738256;82;21292;-64
2021/05/20 11:04:54;;;;;;;3.20;0.80;;;;;;;21.62;46.66;100099.84;1737434;82;22211;-59
2021/05/20 11:07:33;;;;;;;4.17;0.57;;;;;;;21.58;46.67;100106.64;1724895;82;21134;-58
2021/05/20 11:10:14;;;;;;;3.72;0.62;;;;;;;21.58;47.23;100095.98;1716156;81;21144;-59
2021/05/20 11:12:55;;;;;;;2.55;0.65;;;;;;;21.60;47.75;100096.58;1722069;82;21264;-61
2021/05/20 11:15:30;;;;;;;1.95;0.75;;;;;;;21.62;47.62;100103.34;1714495;82;21228;-65
2021/05/20 11:18:33;;;;;;;1.77;0.65;;;;;;;21.74;48.07;100106.16;1703931;83;21196;-61
2021/05/20 11:21:07;;;;;;;1.62;0.85;;;;;;;21.91;48.00;100102.01;1711656;82;21203;-65
2021/05/20 11:23:43;;;;;;;1.20;0.72;;;;;;;22.06;47.35;100103.38;1708201;82;21308;-63
2021/05/20 11:26:25;;;;;;;3.45;1.65;;;;;;;22.12;47.06;100108.34;1710820;82;21295;-65
2021/05/20 11:29:09;;;;;;;2.25;0.95;;;;;;;22.12;47.39;100114.51;1700930;82;21292;-61
2021/05/20 11:31:42;;;;;;;2.08;0.88;;;;;;;22.09;46.82;100121.59;1717047;82;21802;-60
2021/05/20 11:36:53;;;;;;;1.75;0.90;;;;;;;21.79;47.33;100128.99;1718745;82;22143;-63
2021/05/20 11:39:26;;;;;;;1.70;0.98;;;;;;;21.70;47.61;100125.76;1722694;81;21307;-61
2021/05/20 11:42:03;;;;;;;5.70;1.00;;;;;;;21.65;47.86;100120.75;1718774;82;21210;-60
2021/05/20 11:44:39;;;;;;;1.92;0.80;;;;;;;21.59;48.12;100129.06;1721570;81;21868;-62
2021/05/20 11:47:13;;;;;;;1.92;0.90;;;;;;;21.56;48.28;100126.02;1721391;81;21718;-63
2021/05/20 11:49:48;;;;;;;1.50;1.40;;;;;;;21.58;48.61;100135.43;1716794;82;21202;-64
2021/05/20 11:52:22;;;;;;;2.33;1.22;;;;;;;21.64;48.82;100117.27;1702231;82;21788;-63
2021/05/20 11:55:02;;;;;;;4.12;0.70;;;;;;;21.75;48.12;100132.61;1707933;82;21303;-62
2021/05/20 11:57:33;;;;;;;1.98;0.80;;;;;;;21.77;47.83;100131.05;1707519;81;21937;-60
2021/05/20 12:00:08;;;;;;;3.52;1.12;;;;;;;21.77;48.08;100128.39;1718334;81;21164;-66
2021/05/20 12:02:42;;;;;;;4.00;1.00;;;;;;;21.79;47.65;100122.33;1686603;83;21365;-65
2021/05/20 12:05:18;;;;;;;3.72;0.70;;;;;;;21.77;48.26;100118.55;1684223;84;21315;-65
2021/05/20 12:07:52;;;;;;;1.20;0.60;;;;;;;21.74;48.46;100121.64;1678326;84;21342;-63
2021/05/20 12:10:27;;;;;;;1.72;0.68;;;;;;;21.77;48.86;100116.40;1709153;82;21835;-63
2021/05/20 12:13:07;;;;;;;0.70;0.60;;;;;;;21.85;48.83;100113.53;1723499;82;21317;-58
2021/05/20 12:15:37;;;;;;;4.30;0.70;;;;;;;21.92;47.39;100112.98;1721257;81;21333;-59
2021/05/20 12:18:11;;;;;;;4.75;0.70;;;;;;;21.92;46.86;100107.15;1721706;81;21212;-66
2021/05/20 12:20:47;;;;;;;5.42;0.85;;;;;;;21.92;46.48;100115.66;1724034;81;21184;-60
2021/05/20 12:23:20;;;;;;;1.67;0.60;;;;;;;21.82;46.27;100121.41;1720709;82;21322;-61
2021/05/20 12:25:57;;;;;;;3.72;0.93;;;;;;;21.69;46.23;100119.29;1719989;81;21244;-62
2021/05/20 12:32:45;;;;;;;1.12;0.70;;;;;;;21.55;46.78;100123.03;1717135;82;21589;-62
2021/05/20 12:35:31;;;;;;;0.70;0.70;;;;;;;21.70;47.61;100116.44;1719261;81;21338;-64
2021/05/20 12:38:15;;;;;;;1.25;0.80;;;;;;;21.87;47.13;100120.80;1716833;81;21329;-63
2021/05/20 12:40:54;;;;;;;0.98;0.80;;;;;;;21.93;47.09;100107.44;1723462;81;21194;-59
2021/05/20 12:43:35;;;;;;;1.40;0.70;;;;;;;21.87;46.58;100116.80;1718862;81;21194;-62
2021/05/20 12:46:10;;;;;;;2.75;0.85;;;;;;;21.81;46.53;100110.94;1712609;81;21311;-60
2021/05/20 12:48:46;;;;;;;4.90;0.90;;;;;;;21.86;46.99;100111.98;1713749;81;21221;-59
2021/05/20 12:51:23;;;;;;;3.87;1.00;;;;;;;21.98;47.04;100109.45;1724666;81;21233;-66
2021/05/20 12:54:06;;;;;;;1.30;1.07;;;;;;;22.07;47.76;100117.50;1712896;81;21839;-63
2021/05/20 12:56:41;;;;;;;1.17;0.78;;;;;;;22.11;47.09;100099.53;1719388;81;21181;-60
2021/05/20 12:59:16;;;;;;;2.40;0.60;;;;;;;22.18;47.44;100109.35;1720834;82;21279;-61
2021/05/20 13:01:53;;;;;;;1.52;0.85;;;;;;;22.26;47.15;100112.56;1715374;82;21267;-60
2021/05/20 13:04:29;;;;;;;2.15;0.90;;;;;;;22.34;46.91;100118.16;1722515;81;21299;-60
2021/05/20 13:07:13;;;;;;;1.17;0.88;;;;;;;22.42;46.66;100105.41;1719095;82;21314;-67
2021/05/20 13:09:47;;;;;;;1.87;0.80;;;;;;;22.47;46.45;100110.09;1712569;82;22300;-65
2021/05/20 13:12:26;;;;;;;2.15;1.00;;;;;;;22.48;47.20;100103.70;1626064;86;21395;-62
2021/05/20 13:15:07;;;;;;;3.33;1.25;;;;;;;22.53;46.79;100109.20;1674926;84;21273;-61
2021/05/20 13:17:58;;;;;;;2.95;0.88;;;;;;;22.59;46.92;100105.69;1638075;86;21363;-66
2021/05/20 13:23:29;;;;;;;2.00;1.20;;;;;;;22.57;45.72;100096.55;1641116;86;21216;-62
2021/05/20 13:26:04;;;;;;;4.37;1.22;;;;;;;22.45;45.71;100109.49;1656106;84;21330;-63
2021/05/20 13:28:39;;;;;;;5.08;1.20;;;;;;;22.28;45.53;100104.38;1670913;84;21354;-62
2021/05/20 13:31:12;;;;;;;3.37;0.95;;;;;;;22.16;45.68;100108.24;1664135;84;21378;-63
2021/05/20 13:33:48;;;;;;;2.58;1.07;;;;;;;22.09;46.18;100118.13;1656690;84;21260;-65
2021/05/20 13:36:22;;;;;;;3.10;0.82;;;;;;;22.16;46.45;100108.24;1658684;84;21327;-64
2021/05/20 13:38:56;;;;;;;0.98;0.78;;;;;;;22.29;45.83;100114.81;1661358;84;21417;-64
2021/05/20 13:41:30;;;;;;;2.62;1.20;;;;;;;22.37;46.01;100113.74;1658767;84;21172;-62
2021/05/20 13:44:03;;;;;;;3.07;1.20;;;;;;;22.36;45.43;100112.09;1661152;84;21256;-62
2021/05/20 13:46:36;;;;;;;4.20;1.00;;;;;;;22.32;45.34;100126.90;1662870;84;21305;-61
2021/05/20 13:49:09;;;;;;;3.42;1.12;;;;;;;22.26;45.43;100129.11;1661352;84;21295;-63
2021/05/20 13:51:44;;;;;;;2.17;0.90;;;;;;;22.23;46.02;100132.20;1660315;84;21311;-66
2021/05/20 13:54:17;;;;;;;2.52;0.90;;;;;;;22.25;45.85;100136.28;1658772;86;21187;-61
2021/05/20 13:56:50;;;;;;;3.80;1.00;;;;;;;22.23;45.93;100129.53;1659589;84;21316;-65
